sensor_id;sensor_type;location;lat;lon;timestamp;temperature;humidity
61896;DHT22;47835;52.778;5.956;2022-07-24T00:01:02;21.50;93.00
61896;DHT22;47835;52.778;5.956;2022-07-24T00:03:28;21.50;93.00
61896;DHT22;47835;52.778;5.956;2022-07-24T00:05:54;21.50;93.00
61896;DHT22;47835;52.778;5.956;2022-07-24T00:08:19;21.50;93.00
61896;DHT22;47835;52.778;5.956;2022-07-24T00:10:45;21.50;93.00
61896;DHT22;47835;52.778;5.956;2022-07-24T00:13:10;21.50;93.00
61896;DHT22;47835;52.778;5.956;2022-07-24T00:15:36;21.50;93.00
61896;DHT22;47835;52.778;5.956;2022-07-24T00:18:01;21.50;93.00
61896;DHT22;47835;52.778;5.956;2022-07-24T00:20:27;21.40;93.40
61896;DHT22;47835;52.778;5.956;2022-07-24T00:22:52;21.50;93.00
61896;DHT22;47835;52.778;5.956;2022-07-24T00:25:18;21.40;92.90
61896;DHT22;47835;52.778;5.956;2022-07-24T00:27:43;21.40;92.80
61896;DHT22;47835;52.778;5.956;2022-07-24T00:30:12;21.40;92.90
61896;DHT22;47835;52.778;5.956;2022-07-24T00:32:38;21.40;92.90
61896;DHT22;47835;52.778;5.956;2022-07-24T00:35:04;21.40;93.00
61896;DHT22;47835;52.778;5.956;2022-07-24T00:37:29;21.40;92.90
61896;DHT22;47835;52.778;5.956;2022-07-24T00:39:55;21.40;93.00
61896;DHT22;47835;52.778;5.956;2022-07-24T00:42:20;21.40;93.00
61896;DHT22;47835;52.778;5.956;2022-07-24T00:44:46;21.40;93.00
61896;DHT22;47835;52.778;5.956;2022-07-24T00:47:11;21.40;93.10
61896;DHT22;47835;52.778;5.956;2022-07-24T00:49:37;21.40;93.20
61896;DHT22;47835;52.778;5.956;2022-07-24T00:52:03;21.40;93.20
61896;DHT22;47835;52.778;5.956;2022-07-24T00:54:29;21.40;93.20
61896;DHT22;47835;52.778;5.956;2022-07-24T00:56:55;21.40;93.30
61896;DHT22;47835;52.778;5.956;2022-07-24T00:59:21;21.40;93.30
61896;DHT22;47835;52.778;5.956;2022-07-24T01:01:50;21.30;93.20
61896;DHT22;47835;52.778;5.956;2022-07-24T01:04:18;21.30;93.20
61896;DHT22;47835;52.778;5.956;2022-07-24T01:06:46;21.30;93.30
61896;DHT22;47835;52.778;5.956;2022-07-24T01:09:12;21.30;93.30
61896;DHT22;47835;52.778;5.956;2022-07-24T01:11:40;21.30;93.30
61896;DHT22;47835;52.778;5.956;2022-07-24T01:14:07;21.30;93.30
61896;DHT22;47835;52.778;5.956;2022-07-24T01:16:34;21.30;93.20
61896;DHT22;47835;52.778;5.956;2022-07-24T01:19:00;21.30;93.20
61896;DHT22;47835;52.778;5.956;2022-07-24T01:21:25;21.30;93.20
61896;DHT22;47835;52.778;5.956;2022-07-24T01:23:51;21.30;93.30
61896;DHT22;47835;52.778;5.956;2022-07-24T01:26:17;21.30;93.20
61896;DHT22;47835;52.778;5.956;2022-07-24T01:28:42;21.30;93.20
61896;DHT22;47835;52.778;5.956;2022-07-24T01:31:08;21.20;93.10
61896;DHT22;47835;52.778;5.956;2022-07-24T01:33:33;21.20;93.10
61896;DHT22;47835;52.778;5.956;2022-07-24T01:36:01;21.20;93.20
61896;DHT22;47835;52.778;5.956;2022-07-24T01:38:27;21.20;93.20
61896;DHT22;47835;52.778;5.956;2022-07-24T01:40:53;21.20;93.10
61896;DHT22;47835;52.778;5.956;2022-07-24T01:43:21;21.20;93.10
61896;DHT22;47835;52.778;5.956;2022-07-24T01:45:46;21.20;93.00
61896;DHT22;47835;52.778;5.956;2022-07-24T01:48:12;21.20;93.00
61896;DHT22;47835;52.778;5.956;2022-07-24T01:50:38;21.20;92.90
61896;DHT22;47835;52.778;5.956;2022-07-24T01:53:03;21.20;92.90
61896;DHT22;47835;52.778;5.956;2022-07-24T01:55:31;21.20;92.80
61896;DHT22;47835;52.778;5.956;2022-07-24T01:57:57;21.20;92.80
61896;DHT22;47835;52.778;5.956;2022-07-24T02:00:23;21.20;92.70
61896;DHT22;47835;52.778;5.956;2022-07-24T02:02:48;21.20;92.90
61896;DHT22;47835;52.778;5.956;2022-07-24T02:05:15;21.10;92.90
61896;DHT22;47835;52.778;5.956;2022-07-24T02:07:41;21.20;92.90
61896;DHT22;47835;52.778;5.956;2022-07-24T02:10:09;21.20;92.80
61896;DHT22;47835;52.778;5.956;2022-07-24T02:12:34;21.10;92.90
61896;DHT22;47835;52.778;5.956;2022-07-24T02:15:00;21.10;92.90
61896;DHT22;47835;52.778;5.956;2022-07-24T02:17:26;21.20;92.90
61896;DHT22;47835;52.778;5.956;2022-07-24T02:19:51;21.10;92.90
61896;DHT22;47835;52.778;5.956;2022-07-24T02:22:17;21.10;93.00
61896;DHT22;47835;52.778;5.956;2022-07-24T02:24:43;21.10;93.00
61896;DHT22;47835;52.778;5.956;2022-07-24T02:27:08;21.10;93.10
61896;DHT22;47835;52.778;5.956;2022-07-24T02:29:34;21.10;93.00
61896;DHT22;47835;52.778;5.956;2022-07-24T02:31:59;21.10;93.10
61896;DHT22;47835;52.778;5.956;2022-07-24T02:34:25;21.10;93.00
61896;DHT22;47835;52.778;5.956;2022-07-24T02:36:53;21.10;93.10
61896;DHT22;47835;52.778;5.956;2022-07-24T02:39:19;21.10;93.10
61896;DHT22;47835;52.778;5.956;2022-07-24T02:41:44;21.10;93.10
61896;DHT22;47835;52.778;5.956;2022-07-24T02:44:10;21.10;93.20
61896;DHT22;47835;52.778;5.956;2022-07-24T02:46:36;21.10;93.20
61896;DHT22;47835;52.778;5.956;2022-07-24T02:49:04;21.10;93.30
61896;DHT22;47835;52.778;5.956;2022-07-24T02:51:29;21.10;93.30
61896;DHT22;47835;52.778;5.956;2022-07-24T02:53:55;21.10;93.30
61896;DHT22;47835;52.778;5.956;2022-07-24T02:56:20;21.10;93.40
61896;DHT22;47835;52.778;5.956;2022-07-24T02:58:46;21.10;93.50
61896;DHT22;47835;52.778;5.956;2022-07-24T03:01:14;21.10;93.40
61896;DHT22;47835;52.778;5.956;2022-07-24T03:03:39;21.10;93.50
61896;DHT22;47835;52.778;5.956;2022-07-24T03:06:05;21.10;93.60
61896;DHT22;47835;52.778;5.956;2022-07-24T03:08:30;21.00;93.60
61896;DHT22;47835;52.778;5.956;2022-07-24T03:10:56;21.00;93.70
61896;DHT22;47835;52.778;5.956;2022-07-24T03:13:21;21.10;93.60
61896;DHT22;47835;52.778;5.956;2022-07-24T03:15:47;21.00;93.70
61896;DHT22;47835;52.778;5.956;2022-07-24T03:18:15;21.00;93.80
61896;DHT22;47835;52.778;5.956;2022-07-24T03:20:41;21.00;93.80
61896;DHT22;47835;52.778;5.956;2022-07-24T03:23:06;21.00;93.80
61896;DHT22;47835;52.778;5.956;2022-07-24T03:25:32;21.00;93.80
61896;DHT22;47835;52.778;5.956;2022-07-24T03:27:57;21.00;93.90
61896;DHT22;47835;52.778;5.956;2022-07-24T03:30:26;21.00;93.90
61896;DHT22;47835;52.778;5.956;2022-07-24T03:32:51;21.00;93.90
61896;DHT22;47835;52.778;5.956;2022-07-24T03:35:17;21.00;93.90
61896;DHT22;47835;52.778;5.956;2022-07-24T03:37:42;21.00;93.90
61896;DHT22;47835;52.778;5.956;2022-07-24T03:40:08;20.90;93.90
61896;DHT22;47835;52.778;5.956;2022-07-24T03:42:34;21.00;93.90
61896;DHT22;47835;52.778;5.956;2022-07-24T03:45:00;21.00;93.90
61896;DHT22;47835;52.778;5.956;2022-07-24T03:47:30;21.00;93.90
61896;DHT22;47835;52.778;5.956;2022-07-24T03:49:55;20.90;94.00
61896;DHT22;47835;52.778;5.956;2022-07-24T03:52:21;20.90;94.00
61896;DHT22;47835;52.778;5.956;2022-07-24T03:54:47;20.90;94.00
61896;DHT22;47835;52.778;5.956;2022-07-24T03:57:12;21.00;94.10
61896;DHT22;47835;52.778;5.956;2022-07-24T03:59:38;20.90;94.10
61896;DHT22;47835;52.778;5.956;2022-07-24T04:02:04;20.90;94.30
61896;DHT22;47835;52.778;5.956;2022-07-24T04:04:29;20.90;94.20
61896;DHT22;47835;52.778;5.956;2022-07-24T04:06:55;20.90;94.30
61896;DHT22;47835;52.778;5.956;2022-07-24T04:09:20;20.90;94.40
61896;DHT22;47835;52.778;5.956;2022-07-24T04:11:46;20.90;94.40
61896;DHT22;47835;52.778;5.956;2022-07-24T04:14:14;20.90;94.50
61896;DHT22;47835;52.778;5.956;2022-07-24T04:16:40;20.90;94.50
61896;DHT22;47835;52.778;5.956;2022-07-24T04:19:05;20.90;94.50
61896;DHT22;47835;52.778;5.956;2022-07-24T04:21:31;20.90;94.50
61896;DHT22;47835;52.778;5.956;2022-07-24T04:23:56;20.90;94.60
61896;DHT22;47835;52.778;5.956;2022-07-24T04:26:22;20.90;94.60
61896;DHT22;47835;52.778;5.956;2022-07-24T04:28:48;20.80;94.70
61896;DHT22;47835;52.778;5.956;2022-07-24T04:31:13;20.80;94.60
61896;DHT22;47835;52.778;5.956;2022-07-24T04:33:44;20.80;94.70
61896;DHT22;47835;52.778;5.956;2022-07-24T04:36:12;20.80;94.80
61896;DHT22;47835;52.778;5.956;2022-07-24T04:38:37;20.80;94.80
61896;DHT22;47835;52.778;5.956;2022-07-24T04:41:03;20.80;94.80
61896;DHT22;47835;52.778;5.956;2022-07-24T04:43:29;20.80;94.80
61896;DHT22;47835;52.778;5.956;2022-07-24T04:45:54;20.80;94.90
61896;DHT22;47835;52.778;5.956;2022-07-24T04:48:20;20.80;94.90
61896;DHT22;47835;52.778;5.956;2022-07-24T04:50:46;20.80;95.20
61896;DHT22;47835;52.778;5.956;2022-07-24T04:53:11;20.80;95.00
61896;DHT22;47835;52.778;5.956;2022-07-24T04:55:37;20.90;95.10
61896;DHT22;47835;52.778;5.956;2022-07-24T04:58:05;20.80;94.80
61896;DHT22;47835;52.778;5.956;2022-07-24T05:00:33;20.70;94.90
61896;DHT22;47835;52.778;5.956;2022-07-24T05:02:59;20.70;95.20
61896;DHT22;47835;52.778;5.956;2022-07-24T05:05:27;20.70;95.40
61896;DHT22;47835;52.778;5.956;2022-07-24T05:07:52;20.70;95.60
61896;DHT22;47835;52.778;5.956;2022-07-24T05:10:18;20.70;95.70
61896;DHT22;47835;52.778;5.956;2022-07-24T05:12:43;20.80;95.90
61896;DHT22;47835;52.778;5.956;2022-07-24T05:15:11;20.70;95.80
61896;DHT22;47835;52.778;5.956;2022-07-24T05:17:40;20.70;96.10
61896;DHT22;47835;52.778;5.956;2022-07-24T05:20:08;20.70;96.20
61896;DHT22;47835;52.778;5.956;2022-07-24T05:22:36;20.70;96.50
61896;DHT22;47835;52.778;5.956;2022-07-24T05:25:02;20.70;96.60
61896;DHT22;47835;52.778;5.956;2022-07-24T05:27:27;20.60;96.90
61896;DHT22;47835;52.778;5.956;2022-07-24T05:29:55;20.60;97.40
61896;DHT22;47835;52.778;5.956;2022-07-24T05:32:23;20.50;97.70
61896;DHT22;47835;52.778;5.956;2022-07-24T05:34:49;20.50;97.70
61896;DHT22;47835;52.778;5.956;2022-07-24T05:37:14;20.50;98.20
61896;DHT22;47835;52.778;5.956;2022-07-24T05:39:40;20.50;98.10
61896;DHT22;47835;52.778;5.956;2022-07-24T05:42:06;20.50;98.40
61896;DHT22;47835;52.778;5.956;2022-07-24T05:44:31;20.50;98.70
61896;DHT22;47835;52.778;5.956;2022-07-24T05:46:57;20.60;98.70
61896;DHT22;47835;52.778;5.956;2022-07-24T05:49:22;20.60;98.60
61896;DHT22;47835;52.778;5.956;2022-07-24T05:51:48;20.60;99.00
61896;DHT22;47835;52.778;5.956;2022-07-24T05:54:13;20.60;99.20
61896;DHT22;47835;52.778;5.956;2022-07-24T05:56:39;20.60;99.20
61896;DHT22;47835;52.778;5.956;2022-07-24T05:59:04;20.60;99.00
61896;DHT22;47835;52.778;5.956;2022-07-24T06:01:30;20.70;99.20
61896;DHT22;47835;52.778;5.956;2022-07-24T06:03:58;20.80;98.70
61896;DHT22;47835;52.778;5.956;2022-07-24T06:06:24;20.80;98.70
61896;DHT22;47835;52.778;5.956;2022-07-24T06:08:49;20.90;98.40
61896;DHT22;47835;52.778;5.956;2022-07-24T06:11:17;21.00;98.40
61896;DHT22;47835;52.778;5.956;2022-07-24T06:13:43;21.00;98.10
61896;DHT22;47835;52.778;5.956;2022-07-24T06:16:11;21.10;97.70
61896;DHT22;47835;52.778;5.956;2022-07-24T06:18:37;21.10;98.10
61896;DHT22;47835;52.778;5.956;2022-07-24T06:21:03;21.10;99.10
61896;DHT22;47835;52.778;5.956;2022-07-24T06:23:28;21.20;97.70
61896;DHT22;47835;52.778;5.956;2022-07-24T06:25:54;21.20;97.60
61896;DHT22;47835;52.778;5.956;2022-07-24T06:28:19;21.30;97.60
61896;DHT22;47835;52.778;5.956;2022-07-24T06:30:45;21.30;97.40
61896;DHT22;47835;52.778;5.956;2022-07-24T06:33:13;21.30;97.40
61896;DHT22;47835;52.778;5.956;2022-07-24T06:35:39;21.40;97.80
61896;DHT22;47835;52.778;5.956;2022-07-24T06:38:04;21.40;97.60
61896;DHT22;47835;52.778;5.956;2022-07-24T06:40:30;21.50;97.40
61896;DHT22;47835;52.778;5.956;2022-07-24T06:42:55;21.50;97.20
61896;DHT22;47835;52.778;5.956;2022-07-24T06:45:21;21.50;97.60
61896;DHT22;47835;52.778;5.956;2022-07-24T06:47:46;21.50;97.40
61896;DHT22;47835;52.778;5.956;2022-07-24T06:50:13;21.50;98.00
61896;DHT22;47835;52.778;5.956;2022-07-24T06:52:45;21.60;97.00
61896;DHT22;47835;52.778;5.956;2022-07-24T06:55:11;21.60;96.60
61896;DHT22;47835;52.778;5.956;2022-07-24T06:57:39;21.60;96.40
61896;DHT22;47835;52.778;5.956;2022-07-24T07:00:07;21.60;97.40
61896;DHT22;47835;52.778;5.956;2022-07-24T07:02:34;21.70;97.80
61896;DHT22;47835;52.778;5.956;2022-07-24T07:04:59;21.70;97.80
61896;DHT22;47835;52.778;5.956;2022-07-24T07:07:25;21.70;97.90
61896;DHT22;47835;52.778;5.956;2022-07-24T07:09:50;21.70;97.90
61896;DHT22;47835;52.778;5.956;2022-07-24T07:12:16;21.80;97.60
61896;DHT22;47835;52.778;5.956;2022-07-24T07:14:44;21.80;97.30
61896;DHT22;47835;52.778;5.956;2022-07-24T07:17:10;21.90;97.50
61896;DHT22;47835;52.778;5.956;2022-07-24T07:19:36;21.90;98.00
61896;DHT22;47835;52.778;5.956;2022-07-24T07:22:02;22.00;98.10
61896;DHT22;47835;52.778;5.956;2022-07-24T07:24:33;22.00;98.10
61896;DHT22;47835;52.778;5.956;2022-07-24T07:26:58;22.00;98.30
61896;DHT22;47835;52.778;5.956;2022-07-24T07:29:24;22.00;98.50
61896;DHT22;47835;52.778;5.956;2022-07-24T07:31:49;22.00;98.90
61896;DHT22;47835;52.778;5.956;2022-07-24T07:34:15;22.00;99.80
61896;DHT22;47835;52.778;5.956;2022-07-24T07:36:41;22.10;99.90
61896;DHT22;47835;52.778;5.956;2022-07-24T07:39:06;22.10;99.90
61896;DHT22;47835;52.778;5.956;2022-07-24T07:41:32;22.10;99.90
61896;DHT22;47835;52.778;5.956;2022-07-24T07:43:57;22.10;99.90
61896;DHT22;47835;52.778;5.956;2022-07-24T07:46:24;22.10;99.90
61896;DHT22;47835;52.778;5.956;2022-07-24T07:48:50;22.10;99.90
61896;DHT22;47835;52.778;5.956;2022-07-24T07:51:16;22.10;99.90
61896;DHT22;47835;52.778;5.956;2022-07-24T07:53:42;22.10;99.20
61896;DHT22;47835;52.778;5.956;2022-07-24T07:56:07;22.10;99.20
61896;DHT22;47835;52.778;5.956;2022-07-24T07:58:33;22.10;99.50
61896;DHT22;47835;52.778;5.956;2022-07-24T08:00:58;22.10;99.00
61896;DHT22;47835;52.778;5.956;2022-07-24T08:03:24;22.10;99.00
61896;DHT22;47835;52.778;5.956;2022-07-24T08:05:50;22.10;98.50
61896;DHT22;47835;52.778;5.956;2022-07-24T08:08:18;22.10;98.50
61896;DHT22;47835;52.778;5.956;2022-07-24T08:10:43;22.10;98.40
61896;DHT22;47835;52.778;5.956;2022-07-24T08:13:09;22.10;98.10
61896;DHT22;47835;52.778;5.956;2022-07-24T08:15:35;22.10;98.00
61896;DHT22;47835;52.778;5.956;2022-07-24T08:18:00;22.10;97.50
61896;DHT22;47835;52.778;5.956;2022-07-24T08:20:27;22.10;97.70
61896;DHT22;47835;52.778;5.956;2022-07-24T08:22:53;22.10;97.50
61896;DHT22;47835;52.778;5.956;2022-07-24T08:25:20;22.10;97.40
61896;DHT22;47835;52.778;5.956;2022-07-24T08:27:46;22.10;96.90
61896;DHT22;47835;52.778;5.956;2022-07-24T08:30:14;22.20;97.40
61896;DHT22;47835;52.778;5.956;2022-07-24T08:32:40;22.20;97.30
61896;DHT22;47835;52.778;5.956;2022-07-24T08:35:06;22.20;97.20
61896;DHT22;47835;52.778;5.956;2022-07-24T08:37:40;22.30;96.70
61896;DHT22;47835;52.778;5.956;2022-07-24T08:40:09;22.30;96.80
61896;DHT22;47835;52.778;5.956;2022-07-24T08:42:36;22.30;97.10
61896;DHT22;47835;52.778;5.956;2022-07-24T08:45:04;22.30;97.00
61896;DHT22;47835;52.778;5.956;2022-07-24T08:47:31;22.40;97.20
61896;DHT22;47835;52.778;5.956;2022-07-24T08:50:00;22.40;96.60
61896;DHT22;47835;52.778;5.956;2022-07-24T08:52:27;22.40;96.80
61896;DHT22;47835;52.778;5.956;2022-07-24T08:54:53;22.50;97.40
61896;DHT22;47835;52.778;5.956;2022-07-24T08:57:21;22.50;97.20
61896;DHT22;47835;52.778;5.956;2022-07-24T08:59:47;22.50;97.00
61896;DHT22;47835;52.778;5.956;2022-07-24T09:02:13;22.50;97.10
61896;DHT22;47835;52.778;5.956;2022-07-24T09:04:47;22.50;96.90
61896;DHT22;47835;52.778;5.956;2022-07-24T09:07:18;22.60;96.40
61896;DHT22;47835;52.778;5.956;2022-07-24T09:09:57;22.50;96.10
61896;DHT22;47835;52.778;5.956;2022-07-24T09:12:33;22.50;96.10
61896;DHT22;47835;52.778;5.956;2022-07-24T09:15:00;22.60;96.30
61896;DHT22;47835;52.778;5.956;2022-07-24T09:17:26;22.50;95.90
61896;DHT22;47835;52.778;5.956;2022-07-24T09:19:59;22.60;96.10
61896;DHT22;47835;52.778;5.956;2022-07-24T09:22:35;22.60;95.60
61896;DHT22;47835;52.778;5.956;2022-07-24T09:27:32;22.60;96.40
61896;DHT22;47835;52.778;5.956;2022-07-24T09:29:58;22.60;97.10
61896;DHT22;47835;52.778;5.956;2022-07-24T09:32:24;22.60;97.60
61896;DHT22;47835;52.778;5.956;2022-07-24T09:34:52;22.60;97.30
61896;DHT22;47835;52.778;5.956;2022-07-24T09:37:19;22.70;97.30
61896;DHT22;47835;52.778;5.956;2022-07-24T09:39:46;22.70;97.20
61896;DHT22;47835;52.778;5.956;2022-07-24T09:42:14;22.70;96.80
61896;DHT22;47835;52.778;5.956;2022-07-24T09:44:40;22.70;96.80
61896;DHT22;47835;52.778;5.956;2022-07-24T09:47:08;22.60;96.70
61896;DHT22;47835;52.778;5.956;2022-07-24T09:49:35;22.60;96.60
61896;DHT22;47835;52.778;5.956;2022-07-24T09:52:17;22.70;96.80
61896;DHT22;47835;52.778;5.956;2022-07-24T09:54:48;22.70;96.60
61896;DHT22;47835;52.778;5.956;2022-07-24T09:57:18;22.70;96.40
61896;DHT22;47835;52.778;5.956;2022-07-24T10:02:17;22.70;96.20
61896;DHT22;47835;52.778;5.956;2022-07-24T10:04:44;22.70;96.50
61896;DHT22;47835;52.778;5.956;2022-07-24T10:07:11;22.70;96.20
61896;DHT22;47835;52.778;5.956;2022-07-24T10:09:44;22.70;96.10
61896;DHT22;47835;52.778;5.956;2022-07-24T10:12:12;22.70;96.10
61896;DHT22;47835;52.778;5.956;2022-07-24T10:14:39;22.70;96.20
61896;DHT22;47835;52.778;5.956;2022-07-24T10:17:08;22.70;96.10
61896;DHT22;47835;52.778;5.956;2022-07-24T10:19:45;22.70;96.00
61896;DHT22;47835;52.778;5.956;2022-07-24T10:22:23;22.70;95.80
61896;DHT22;47835;52.778;5.956;2022-07-24T10:27:33;22.70;95.50
61896;DHT22;47835;52.778;5.956;2022-07-24T10:30:03;22.70;95.70
61896;DHT22;47835;52.778;5.956;2022-07-24T10:32:31;22.70;95.70
61896;DHT22;47835;52.778;5.956;2022-07-24T10:40:44;22.80;95.70
61896;DHT22;47835;52.778;5.956;2022-07-24T10:43:14;22.80;95.60
61896;DHT22;47835;52.778;5.956;2022-07-24T10:45:44;22.80;95.50
61896;DHT22;47835;52.778;5.956;2022-07-24T10:48:37;22.80;95.40
61896;DHT22;47835;52.778;5.956;2022-07-24T10:51:07;22.80;94.90
61896;DHT22;47835;52.778;5.956;2022-07-24T10:56:28;22.80;94.80
61896;DHT22;47835;52.778;5.956;2022-07-24T10:58:59;22.80;95.10
61896;DHT22;47835;52.778;5.956;2022-07-24T11:01:29;22.80;94.90
61896;DHT22;47835;52.778;5.956;2022-07-24T11:03:55;22.80;94.80
61896;DHT22;47835;52.778;5.956;2022-07-24T11:06:38;22.80;94.80
61896;DHT22;47835;52.778;5.956;2022-07-24T11:09:05;22.80;94.80
61896;DHT22;47835;52.778;5.956;2022-07-24T11:11:30;22.80;94.80
61896;DHT22;47835;52.778;5.956;2022-07-24T11:13:56;22.80;94.60
61896;DHT22;47835;52.778;5.956;2022-07-24T11:16:28;22.70;94.70
61896;DHT22;47835;52.778;5.956;2022-07-24T11:21:39;22.80;94.90
61896;DHT22;47835;52.778;5.956;2022-07-24T11:26:49;22.70;95.50
61896;DHT22;47835;52.778;5.956;2022-07-24T11:29:24;22.80;95.60
61896;DHT22;47835;52.778;5.956;2022-07-24T11:32:29;22.80;95.50
61896;DHT22;47835;52.778;5.956;2022-07-24T11:34:51;22.80;95.90
61896;DHT22;47835;52.778;5.956;2022-07-24T11:37:17;22.80;95.60
61896;DHT22;47835;52.778;5.956;2022-07-24T11:39:44;22.80;95.80
61896;DHT22;47835;52.778;5.956;2022-07-24T11:42:13;22.80;95.50
61896;DHT22;47835;52.778;5.956;2022-07-24T11:44:42;22.80;95.50
61896;DHT22;47835;52.778;5.956;2022-07-24T11:47:09;22.90;95.70
61896;DHT22;47835;52.778;5.956;2022-07-24T11:49:52;22.90;95.60
61896;DHT22;47835;52.778;5.956;2022-07-24T11:52:21;22.90;95.30
61896;DHT22;47835;52.778;5.956;2022-07-24T11:54:49;22.90;94.70
61896;DHT22;47835;52.778;5.956;2022-07-24T11:57:23;22.90;95.20
61896;DHT22;47835;52.778;5.956;2022-07-24T11:59:50;22.90;95.20
61896;DHT22;47835;52.778;5.956;2022-07-24T12:02:16;22.90;94.80
61896;DHT22;47835;52.778;5.956;2022-07-24T12:04:43;22.90;94.60
61896;DHT22;47835;52.778;5.956;2022-07-24T12:07:15;22.90;94.50
61896;DHT22;47835;52.778;5.956;2022-07-24T12:09:49;22.90;94.40
61896;DHT22;47835;52.778;5.956;2022-07-24T12:12:20;22.90;94.70
61896;DHT22;47835;52.778;5.956;2022-07-24T12:14:46;23.00;94.80
61896;DHT22;47835;52.778;5.956;2022-07-24T12:17:11;23.00;94.30
61896;DHT22;47835;52.778;5.956;2022-07-24T12:19:37;23.00;94.50
61896;DHT22;47835;52.778;5.956;2022-07-24T12:22:03;23.00;94.10
61896;DHT22;47835;52.778;5.956;2022-07-24T12:24:31;23.00;94.30
61896;DHT22;47835;52.778;5.956;2022-07-24T12:27:00;23.00;94.10
61896;DHT22;47835;52.778;5.956;2022-07-24T12:29:26;22.90;93.80
61896;DHT22;47835;52.778;5.956;2022-07-24T12:32:12;23.00;93.90
61896;DHT22;47835;52.778;5.956;2022-07-24T12:34:43;22.90;93.60
61896;DHT22;47835;52.778;5.956;2022-07-24T12:37:16;22.90;93.90
61896;DHT22;47835;52.778;5.956;2022-07-24T12:39:50;22.90;94.20
61896;DHT22;47835;52.778;5.956;2022-07-24T12:42:16;22.90;94.40
61896;DHT22;47835;52.778;5.956;2022-07-24T12:44:44;22.90;94.50
61896;DHT22;47835;52.778;5.956;2022-07-24T12:47:12;22.90;94.40
61896;DHT22;47835;52.778;5.956;2022-07-24T12:49:42;22.90;94.90
61896;DHT22;47835;52.778;5.956;2022-07-24T12:52:24;22.90;94.30
61896;DHT22;47835;52.778;5.956;2022-07-24T12:54:51;22.90;94.80
61896;DHT22;47835;52.778;5.956;2022-07-24T12:57:20;22.90;94.80
61896;DHT22;47835;52.778;5.956;2022-07-24T12:59:48;22.90;94.80
61896;DHT22;47835;52.778;5.956;2022-07-24T13:02:19;22.90;94.90
61896;DHT22;47835;52.778;5.956;2022-07-24T13:04:51;22.90;95.50
61896;DHT22;47835;52.778;5.956;2022-07-24T13:07:19;22.90;95.40
61896;DHT22;47835;52.778;5.956;2022-07-24T13:09:45;22.90;95.20
61896;DHT22;47835;52.778;5.956;2022-07-24T13:12:11;22.90;95.60
61896;DHT22;47835;52.778;5.956;2022-07-24T13:14:37;22.90;95.70
61896;DHT22;47835;52.778;5.956;2022-07-24T13:19:30;22.90;95.30
61896;DHT22;47835;52.778;5.956;2022-07-24T13:21:56;22.90;95.40
61896;DHT22;47835;52.778;5.956;2022-07-24T13:24:21;22.90;95.30
61896;DHT22;47835;52.778;5.956;2022-07-24T13:26:47;22.90;95.10
61896;DHT22;47835;52.778;5.956;2022-07-24T13:29:13;22.90;95.30
61896;DHT22;47835;52.778;5.956;2022-07-24T13:31:40;22.90;95.40
61896;DHT22;47835;52.778;5.956;2022-07-24T13:34:06;22.90;95.40
61896;DHT22;47835;52.778;5.956;2022-07-24T13:36:37;23.00;95.60
61896;DHT22;47835;52.778;5.956;2022-07-24T13:39:04;23.00;95.70
61896;DHT22;47835;52.778;5.956;2022-07-24T13:41:30;23.00;95.70
61896;DHT22;47835;52.778;5.956;2022-07-24T13:43:55;23.00;95.80
61896;DHT22;47835;52.778;5.956;2022-07-24T13:46:21;23.00;95.60
61896;DHT22;47835;52.778;5.956;2022-07-24T13:48:47;23.00;95.70
61896;DHT22;47835;52.778;5.956;2022-07-24T13:51:12;23.00;95.50
61896;DHT22;47835;52.778;5.956;2022-07-24T13:53:38;23.10;95.40
61896;DHT22;47835;52.778;5.956;2022-07-24T13:56:08;23.10;95.30
61896;DHT22;47835;52.778;5.956;2022-07-24T13:58:35;23.10;95.20
61896;DHT22;47835;52.778;5.956;2022-07-24T14:01:04;23.10;95.60
61896;DHT22;47835;52.778;5.956;2022-07-24T14:03:33;23.10;95.10
61896;DHT22;47835;52.778;5.956;2022-07-24T14:06:08;23.00;95.10
61896;DHT22;47835;52.778;5.956;2022-07-24T14:08:34;23.10;95.50
61896;DHT22;47835;52.778;5.956;2022-07-24T14:10:59;23.10;95.80
61896;DHT22;47835;52.778;5.956;2022-07-24T14:13:25;23.10;95.10
61896;DHT22;47835;52.778;5.956;2022-07-24T14:15:53;23.10;95.80
61896;DHT22;47835;52.778;5.956;2022-07-24T14:18:20;23.10;95.60
61896;DHT22;47835;52.778;5.956;2022-07-24T14:20:45;23.20;95.80
61896;DHT22;47835;52.778;5.956;2022-07-24T14:23:11;23.20;95.60
61896;DHT22;47835;52.778;5.956;2022-07-24T14:25:37;23.20;95.50
61896;DHT22;47835;52.778;5.956;2022-07-24T14:28:02;23.20;96.00
61896;DHT22;47835;52.778;5.956;2022-07-24T14:30:28;23.20;95.60
61896;DHT22;47835;52.778;5.956;2022-07-24T14:32:56;23.20;95.30
61896;DHT22;47835;52.778;5.956;2022-07-24T14:35:22;23.30;95.20
61896;DHT22;47835;52.778;5.956;2022-07-24T14:37:47;23.30;95.20
61896;DHT22;47835;52.778;5.956;2022-07-24T14:40:13;23.40;95.10
61896;DHT22;47835;52.778;5.956;2022-07-24T14:42:39;23.40;95.10
61896;DHT22;47835;52.778;5.956;2022-07-24T14:45:05;23.40;95.10
61896;DHT22;47835;52.778;5.956;2022-07-24T14:47:31;23.30;95.30
61896;DHT22;47835;52.778;5.956;2022-07-24T14:49:56;23.40;95.50
61896;DHT22;47835;52.778;5.956;2022-07-24T14:52:23;23.30;95.50
61896;DHT22;47835;52.778;5.956;2022-07-24T14:54:49;23.40;95.60
61896;DHT22;47835;52.778;5.956;2022-07-24T14:57:15;23.40;96.50
61896;DHT22;47835;52.778;5.956;2022-07-24T14:59:41;23.40;96.40
61896;DHT22;47835;52.778;5.956;2022-07-24T15:02:08;23.40;96.20
61896;DHT22;47835;52.778;5.956;2022-07-24T15:04:35;23.40;96.50
61896;DHT22;47835;52.778;5.956;2022-07-24T15:07:01;23.40;96.10
61896;DHT22;47835;52.778;5.956;2022-07-24T15:09:30;23.40;96.70
61896;DHT22;47835;52.778;5.956;2022-07-24T15:11:58;23.40;96.80
61896;DHT22;47835;52.778;5.956;2022-07-24T15:14:23;23.40;96.60
61896;DHT22;47835;52.778;5.956;2022-07-24T15:16:49;23.40;96.80
61896;DHT22;47835;52.778;5.956;2022-07-24T15:19:15;23.40;96.60
61896;DHT22;47835;52.778;5.956;2022-07-24T15:21:43;23.50;96.30
61896;DHT22;47835;52.778;5.956;2022-07-24T15:24:08;23.50;96.70
61896;DHT22;47835;52.778;5.956;2022-07-24T15:26:35;23.50;96.60
61896;DHT22;47835;52.778;5.956;2022-07-24T15:29:00;23.50;96.50
61896;DHT22;47835;52.778;5.956;2022-07-24T15:31:28;23.50;96.50
61896;DHT22;47835;52.778;5.956;2022-07-24T15:33:54;23.50;96.60
61896;DHT22;47835;52.778;5.956;2022-07-24T15:36:20;23.50;96.60
61896;DHT22;47835;52.778;5.956;2022-07-24T15:38:45;23.50;96.70
61896;DHT22;47835;52.778;5.956;2022-07-24T15:41:11;23.50;96.70
61896;DHT22;47835;52.778;5.956;2022-07-24T15:43:36;23.50;96.60
61896;DHT22;47835;52.778;5.956;2022-07-24T15:46:02;23.50;96.50
61896;DHT22;47835;52.778;5.956;2022-07-24T15:48:28;23.50;96.50
61896;DHT22;47835;52.778;5.956;2022-07-24T15:50:54;23.50;95.70
61896;DHT22;47835;52.778;5.956;2022-07-24T15:53:20;23.50;96.00